sensor_id;sensor_type;location;lat;lon;timestamp;pressure;altitude;pressure_sealevel;temperature;humidity
60920;BME280;59039;52.108;19.942;2024-03-17T00:00:05;100761.58;;;7.89;70.66
60920;BME280;59039;52.108;19.942;2024-03-17T00:02:30;100766.42;;;7.85;70.37
60920;BME280;59039;52.108;19.942;2024-03-17T00:04:55;100767.79;;;7.80;70.32
60920;BME280;59039;52.108;19.942;2024-03-17T00:07:21;100767.02;;;7.76;70.49
60920;BME280;59039;52.108;19.942;2024-03-17T00:09:46;100765.63;;;7.68;70.46
60920;BME280;59039;52.108;19.942;2024-03-17T00:12:11;100765.75;;;7.63;70.31
60920;BME280;59039;52.108;19.942;2024-03-17T00:14:36;100769.42;;;7.56;70.43
60920;BME280;59039;52.108;19.942;2024-03-17T00:17:01;100768.32;;;7.49;70.55
60920;BME280;59039;52.108;19.942;2024-03-17T00:19:27;100776.23;;;7.43;70.64
60920;BME280;59039;52.108;19.942;2024-03-17T00:21:52;100772.96;;;7.37;70.70
60920;BME280;59039;52.108;19.942;2024-03-17T00:24:18;100770.27;;;7.32;70.83
60920;BME280;59039;52.108;19.942;2024-03-17T00:26:44;100769.92;;;7.29;70.68
60920;BME280;59039;52.108;19.942;2024-03-17T00:29:09;100771.45;;;7.24;70.83
60920;BME280;59039;52.108;19.942;2024-03-17T00:31:34;100769.75;;;7.18;70.88
60920;BME280;59039;52.108;19.942;2024-03-17T00:33:59;100774.81;;;7.14;71.10
60920;BME280;59039;52.108;19.942;2024-03-17T00:36:25;100774.91;;;7.10;71.17
60920;BME280;59039;52.108;19.942;2024-03-17T00:38:50;100780.83;;;7.08;71.42
60920;BME280;59039;52.108;19.942;2024-03-17T00:41:15;100779.31;;;7.05;71.40
60920;BME280;59039;52.108;19.942;2024-03-17T00:43:40;100779.45;;;7.01;71.46
60920;BME280;59039;52.108;19.942;2024-03-17T00:46:05;100780.95;;;6.98;71.58
60920;BME280;59039;52.108;19.942;2024-03-17T00:48:30;100778.73;;;6.94;71.48
60920;BME280;59039;52.108;19.942;2024-03-17T00:50:57;100781.68;;;6.88;71.53
60920;BME280;59039;52.108;19.942;2024-03-17T00:53:22;100781.13;;;6.82;71.53
60920;BME280;59039;52.108;19.942;2024-03-17T00:55:52;100778.69;;;6.79;71.61
60920;BME280;59039;52.108;19.942;2024-03-17T00:58:19;100778.91;;;6.76;71.64
60920;BME280;59039;52.108;19.942;2024-03-17T01:00:44;100777.28;;;6.72;71.81
60920;BME280;59039;52.108;19.942;2024-03-17T01:03:09;100778.42;;;6.68;71.91
60920;BME280;59039;52.108;19.942;2024-03-17T01:05:38;100773.45;;;6.65;71.90
60920;BME280;59039;52.108;19.942;2024-03-17T01:08:03;100775.70;;;6.64;72.04
60920;BME280;59039;52.108;19.942;2024-03-17T01:10:28;100773.46;;;6.63;72.14
60920;BME280;59039;52.108;19.942;2024-03-17T01:12:53;100775.50;;;6.62;72.07
60920;BME280;59039;52.108;19.942;2024-03-17T01:15:19;100773.37;;;6.60;72.16
60920;BME280;59039;52.108;19.942;2024-03-17T01:17:44;100774.31;;;6.57;72.83
60920;BME280;59039;52.108;19.942;2024-03-17T01:20:09;100772.40;;;6.51;72.95
60920;BME280;59039;52.108;19.942;2024-03-17T01:22:34;100774.52;;;6.47;73.23
60920;BME280;59039;52.108;19.942;2024-03-17T01:25:00;100774.89;;;6.42;73.16
60920;BME280;59039;52.108;19.942;2024-03-17T01:27:25;100771.50;;;6.37;73.70
60920;BME280;59039;52.108;19.942;2024-03-17T01:29:50;100772.05;;;6.35;73.50
60920;BME280;59039;52.108;19.942;2024-03-17T01:32:15;100773.68;;;6.33;73.66
60920;BME280;59039;52.108;19.942;2024-03-17T01:34:40;100774.90;;;6.28;74.29
60920;BME280;59039;52.108;19.942;2024-03-17T01:37:06;100772.14;;;6.24;74.45
60920;BME280;59039;52.108;19.942;2024-03-17T01:39:32;100771.67;;;6.21;74.18
60920;BME280;59039;52.108;19.942;2024-03-17T01:41:58;100772.34;;;6.19;74.16
60920;BME280;59039;52.108;19.942;2024-03-17T01:44:25;100768.89;;;6.17;74.31
60920;BME280;59039;52.108;19.942;2024-03-17T01:46:51;100769.73;;;6.16;74.76
60920;BME280;59039;52.108;19.942;2024-03-17T01:49:17;100768.50;;;6.15;74.25
60920;BME280;59039;52.108;19.942;2024-03-17T01:51:44;100773.08;;;6.12;74.48
60920;BME280;59039;52.108;19.942;2024-03-17T01:54:11;100767.51;;;6.10;74.33
60920;BME280;59039;52.108;19.942;2024-03-17T01:56:36;100770.97;;;6.07;75.41
60920;BME280;59039;52.108;19.942;2024-03-17T01:59:04;100772.30;;;6.03;75.17
60920;BME280;59039;52.108;19.942;2024-03-17T02:01:29;100773.86;;;5.99;74.99
60920;BME280;59039;52.108;19.942;2024-03-17T02:03:55;100774.85;;;5.96;75.74
60920;BME280;59039;52.108;19.942;2024-03-17T02:06:20;100780.21;;;5.94;75.69
60920;BME280;59039;52.108;19.942;2024-03-17T02:08:52;100776.80;;;5.91;76.29
60920;BME280;59039;52.108;19.942;2024-03-17T02:11:27;100782.73;;;5.89;76.05
60920;BME280;59039;52.108;19.942;2024-03-17T02:13:54;100788.17;;;5.85;76.92
60920;BME280;59039;52.108;19.942;2024-03-17T02:16:19;100788.81;;;5.82;77.44
60920;BME280;59039;52.108;19.942;2024-03-17T02:18:44;100790.16;;;5.76;76.96
60920;BME280;59039;52.108;19.942;2024-03-17T02:21:09;100794.84;;;5.73;77.40
60920;BME280;59039;52.108;19.942;2024-03-17T02:23:35;100795.11;;;5.70;77.84
60920;BME280;59039;52.108;19.942;2024-03-17T02:26:00;100799.48;;;5.67;77.79
60920;BME280;59039;52.108;19.942;2024-03-17T02:28:25;100803.60;;;5.64;77.51
60920;BME280;59039;52.108;19.942;2024-03-17T02:30:50;100812.52;;;5.63;78.24
60920;BME280;59039;52.108;19.942;2024-03-17T02:33:15;100810.50;;;5.61;76.74
60920;BME280;59039;52.108;19.942;2024-03-17T02:35:40;100808.73;;;5.58;77.44
60920;BME280;59039;52.108;19.942;2024-03-17T02:38:06;100813.88;;;5.57;77.83
60920;BME280;59039;52.108;19.942;2024-03-17T02:40:31;100810.63;;;5.54;77.64
60920;BME280;59039;52.108;19.942;2024-03-17T02:42:56;100809.42;;;5.54;77.73
60920;BME280;59039;52.108;19.942;2024-03-17T02:45:22;100807.75;;;5.54;78.18
60920;BME280;59039;52.108;19.942;2024-03-17T02:47:47;100810.50;;;5.54;78.25
60920;BME280;59039;52.108;19.942;2024-03-17T02:50:12;100814.63;;;5.54;77.80
60920;BME280;59039;52.108;19.942;2024-03-17T02:52:37;100813.20;;;5.54;77.39
60920;BME280;59039;52.108;19.942;2024-03-17T02:55:02;100816.50;;;5.53;78.20
60920;BME280;59039;52.108;19.942;2024-03-17T02:57:28;100813.04;;;5.53;77.71
60920;BME280;59039;52.108;19.942;2024-03-17T02:59:53;100814.49;;;5.53;77.97
60920;BME280;59039;52.108;19.942;2024-03-17T03:02:18;100818.64;;;5.53;77.85
60920;BME280;59039;52.108;19.942;2024-03-17T03:04:43;100815.59;;;5.53;78.20
60920;BME280;59039;52.108;19.942;2024-03-17T03:07:09;100816.38;;;5.52;77.70
60920;BME280;59039;52.108;19.942;2024-03-17T03:09:34;100819.69;;;5.51;77.56
60920;BME280;59039;52.108;19.942;2024-03-17T03:11:59;100820.05;;;5.49;78.90
60920;BME280;59039;52.108;19.942;2024-03-17T03:14:24;100813.54;;;5.47;78.17
60920;BME280;59039;52.108;19.942;2024-03-17T03:16:49;100813.91;;;5.44;78.47
60920;BME280;59039;52.108;19.942;2024-03-17T03:19:16;100811.61;;;5.41;78.49
60920;BME280;59039;52.108;19.942;2024-03-17T03:21:41;100812.98;;;5.40;78.37
60920;BME280;59039;52.108;19.942;2024-03-17T03:24:07;100811.61;;;5.38;78.05
60920;BME280;59039;52.108;19.942;2024-03-17T03:26:32;100811.07;;;5.36;78.31
60920;BME280;59039;52.108;19.942;2024-03-17T03:28:57;100810.77;;;5.33;78.51
60920;BME280;59039;52.108;19.942;2024-03-17T03:31:22;100812.84;;;5.31;78.40
60920;BME280;59039;52.108;19.942;2024-03-17T03:33:48;100816.29;;;5.31;78.29
60920;BME280;59039;52.108;19.942;2024-03-17T03:36:14;100811.49;;;5.30;78.04
60920;BME280;59039;52.108;19.942;2024-03-17T03:38:40;100815.52;;;5.29;78.10
60920;BME280;59039;52.108;19.942;2024-03-17T03:41:07;100813.77;;;5.29;77.88
60920;BME280;59039;52.108;19.942;2024-03-17T03:43:33;100813.63;;;5.25;77.53
60920;BME280;59039;52.108;19.942;2024-03-17T03:45:59;100815.25;;;5.23;77.39
60920;BME280;59039;52.108;19.942;2024-03-17T03:48:24;100813.02;;;5.19;77.42
60920;BME280;59039;52.108;19.942;2024-03-17T03:50:50;100810.97;;;5.15;77.55
60920;BME280;59039;52.108;19.942;2024-03-17T03:53:15;100809.67;;;5.13;77.48
60920;BME280;59039;52.108;19.942;2024-03-17T03:55:40;100809.61;;;5.12;77.28
60920;BME280;59039;52.108;19.942;2024-03-17T03:58:05;100808.55;;;5.09;77.07
60920;BME280;59039;52.108;19.942;2024-03-17T04:00:30;100808.83;;;5.05;76.91
60920;BME280;59039;52.108;19.942;2024-03-17T04:02:55;100811.02;;;5.02;76.78
60920;BME280;59039;52.108;19.942;2024-03-17T04:05:21;100816.13;;;4.98;76.84
60920;BME280;59039;52.108;19.942;2024-03-17T04:07:47;100815.56;;;4.93;76.69
60920;BME280;59039;52.108;19.942;2024-03-17T04:10:13;100818.81;;;4.91;76.56
60920;BME280;59039;52.108;19.942;2024-03-17T04:12:39;100817.21;;;4.88;76.46
60920;BME280;59039;52.108;19.942;2024-03-17T04:15:04;100820.39;;;4.84;76.17
60920;BME280;59039;52.108;19.942;2024-03-17T04:17:29;100824.65;;;4.82;76.32
60920;BME280;59039;52.108;19.942;2024-03-17T04:19:55;100823.43;;;4.81;76.37
60920;BME280;59039;52.108;19.942;2024-03-17T04:22:20;100823.52;;;4.80;76.40
60920;BME280;59039;52.108;19.942;2024-03-17T04:24:46;100821.39;;;4.74;76.15
60920;BME280;59039;52.108;19.942;2024-03-17T04:27:12;100824.41;;;4.72;76.07
60920;BME280;59039;52.108;19.942;2024-03-17T04:29:37;100826.73;;;4.73;76.02
60920;BME280;59039;52.108;19.942;2024-03-17T04:32:02;100827.45;;;4.73;76.06
60920;BME280;59039;52.108;19.942;2024-03-17T04:34:28;100827.65;;;4.72;75.92
60920;BME280;59039;52.108;19.942;2024-03-17T04:36:53;100830.86;;;4.73;75.79
60920;BME280;59039;52.108;19.942;2024-03-17T04:39:18;100829.33;;;4.71;75.63
60920;BME280;59039;52.108;19.942;2024-03-17T04:41:43;100828.67;;;4.70;75.31
60920;BME280;59039;52.108;19.942;2024-03-17T04:44:08;100832.51;;;4.70;74.81
60920;BME280;59039;52.108;19.942;2024-03-17T04:46:33;100836.27;;;4.69;74.93
60920;BME280;59039;52.108;19.942;2024-03-17T04:48:59;100831.09;;;4.69;75.00
60920;BME280;59039;52.108;19.942;2024-03-17T04:51:24;100834.75;;;4.68;75.14
60920;BME280;59039;52.108;19.942;2024-03-17T04:53:49;100832.38;;;4.69;75.04
60920;BME280;59039;52.108;19.942;2024-03-17T04:56:14;100833.46;;;4.69;74.75
60920;BME280;59039;52.108;19.942;2024-03-17T04:58:39;100836.77;;;4.70;74.92
60920;BME280;59039;52.108;19.942;2024-03-17T05:01:08;100839.19;;;4.69;74.62
60920;BME280;59039;52.108;19.942;2024-03-17T05:03:34;100838.95;;;4.67;74.38
60920;BME280;59039;52.108;19.942;2024-03-17T05:06:01;100838.77;;;4.67;74.67
60920;BME280;59039;52.108;19.942;2024-03-17T05:08:26;100836.37;;;4.66;74.77
60920;BME280;59039;52.108;19.942;2024-03-17T05:10:59;100837.18;;;4.62;74.53
60920;BME280;59039;52.108;19.942;2024-03-17T05:13:26;100834.52;;;4.61;74.51
60920;BME280;59039;52.108;19.942;2024-03-17T05:15:51;100836.23;;;4.63;74.70
60920;BME280;59039;52.108;19.942;2024-03-17T05:18:16;100828.33;;;4.63;74.80
60920;BME280;59039;52.108;19.942;2024-03-17T05:20:41;100831.29;;;4.61;74.86
60920;BME280;59039;52.108;19.942;2024-03-17T05:23:06;100834.61;;;4.63;74.92
60920;BME280;59039;52.108;19.942;2024-03-17T05:25:32;100838.92;;;4.65;75.02
60920;BME280;59039;52.108;19.942;2024-03-17T05:27:57;100835.10;;;4.66;75.07
60920;BME280;59039;52.108;19.942;2024-03-17T05:30:22;100833.67;;;4.66;75.16
60920;BME280;59039;52.108;19.942;2024-03-17T05:32:47;100831.83;;;4.66;75.19
60920;BME280;59039;52.108;19.942;2024-03-17T05:35:12;100830.04;;;4.67;75.07
60920;BME280;59039;52.108;19.942;2024-03-17T05:37:38;100828.03;;;4.67;75.07
60920;BME280;59039;52.108;19.942;2024-03-17T05:40:03;100825.75;;;4.66;75.01
60920;BME280;59039;52.108;19.942;2024-03-17T05:42:28;100831.70;;;4.66;74.93
60920;BME280;59039;52.108;19.942;2024-03-17T05:44:53;100830.17;;;4.67;74.97
60920;BME280;59039;52.108;19.942;2024-03-17T05:47:19;100831.32;;;4.68;74.94
60920;BME280;59039;52.108;19.942;2024-03-17T05:49:44;100834.95;;;4.68;74.89
60920;BME280;59039;52.108;19.942;2024-03-17T05:52:10;100838.55;;;4.68;74.85
60920;BME280;59039;52.108;19.942;2024-03-17T05:54:35;100840.14;;;4.68;74.87
60920;BME280;59039;52.108;19.942;2024-03-17T05:57:00;100842.79;;;4.69;74.84
60920;BME280;59039;52.108;19.942;2024-03-17T05:59:25;100841.48;;;4.70;74.74
60920;BME280;59039;52.108;19.942;2024-03-17T06:01:50;100843.45;;;4.69;74.74
60920;BME280;59039;52.108;19.942;2024-03-17T06:04:15;100841.45;;;4.70;74.34
60920;BME280;59039;52.108;19.942;2024-03-17T06:06:41;100835.86;;;4.73;74.47
60920;BME280;59039;52.108;19.942;2024-03-17T06:09:06;100823.34;;;4.72;74.37
60920;BME280;59039;52.108;19.942;2024-03-17T06:11:31;100822.54;;;4.73;74.26
60920;BME280;59039;52.108;19.942;2024-03-17T06:13:56;100826.24;;;4.74;74.16
60920;BME280;59039;52.108;19.942;2024-03-17T06:16:21;100827.00;;;4.76;74.04
60920;BME280;59039;52.108;19.942;2024-03-17T06:18:46;100831.20;;;4.80;74.09
60920;BME280;59039;52.108;19.942;2024-03-17T06:21:12;100836.85;;;4.85;73.91
60920;BME280;59039;52.108;19.942;2024-03-17T06:23:37;100835.38;;;4.87;73.44
60920;BME280;59039;52.108;19.942;2024-03-17T06:26:02;100836.16;;;4.92;73.50
60920;BME280;59039;52.108;19.942;2024-03-17T06:28:27;100839.65;;;4.96;73.35
60920;BME280;59039;52.108;19.942;2024-03-17T06:30:57;100843.83;;;5.00;73.29
60920;BME280;59039;52.108;19.942;2024-03-17T06:33:23;100847.01;;;5.03;72.91
60920;BME280;59039;52.108;19.942;2024-03-17T06:35:48;100851.73;;;5.05;72.76
60920;BME280;59039;52.108;19.942;2024-03-17T06:38:14;100855.48;;;5.06;72.44
60920;BME280;59039;52.108;19.942;2024-03-17T06:40:39;100852.68;;;5.07;72.34
60920;BME280;59039;52.108;19.942;2024-03-17T06:43:05;100854.52;;;5.09;72.38
60920;BME280;59039;52.108;19.942;2024-03-17T06:45:30;100853.85;;;5.11;72.42
60920;BME280;59039;52.108;19.942;2024-03-17T06:47:55;100852.50;;;5.12;72.03
60920;BME280;59039;52.108;19.942;2024-03-17T06:50:21;100857.75;;;5.12;71.68
60920;BME280;59039;52.108;19.942;2024-03-17T06:52:46;100858.34;;;5.13;72.14
60920;BME280;59039;52.108;19.942;2024-03-17T06:55:12;100860.50;;;5.16;72.13
60920;BME280;59039;52.108;19.942;2024-03-17T06:57:37;100867.75;;;5.18;72.06
60920;BME280;59039;52.108;19.942;2024-03-17T07:00:02;100864.87;;;5.20;72.19
60920;BME280;59039;52.108;19.942;2024-03-17T07:02:28;100867.82;;;5.21;71.71
60920;BME280;59039;52.108;19.942;2024-03-17T07:04:53;100870.45;;;5.25;71.91
60920;BME280;59039;52.108;19.942;2024-03-17T07:07:18;100871.45;;;5.29;72.03
60920;BME280;59039;52.108;19.942;2024-03-17T07:09:43;100868.17;;;5.32;71.50
60920;BME280;59039;52.108;19.942;2024-03-17T07:12:10;100870.39;;;5.36;71.47
60920;BME280;59039;52.108;19.942;2024-03-17T07:14:36;100878.04;;;5.39;71.14
60920;BME280;59039;52.108;19.942;2024-03-17T07:17:01;100877.17;;;5.44;71.52
60920;BME280;59039;52.108;19.942;2024-03-17T07:19:26;100878.92;;;5.50;71.38
60920;BME280;59039;52.108;19.942;2024-03-17T07:21:51;100879.67;;;5.54;71.14
60920;BME280;59039;52.108;19.942;2024-03-17T07:24:17;100879.73;;;5.58;71.29
60920;BME280;59039;52.108;19.942;2024-03-17T07:26:42;100878.65;;;5.61;70.91
60920;BME280;59039;52.108;19.942;2024-03-17T07:29:07;100879.13;;;5.64;71.08
60920;BME280;59039;52.108;19.942;2024-03-17T07:31:32;100879.13;;;5.67;71.00
60920;BME280;59039;52.108;19.942;2024-03-17T07:33:57;100882.18;;;5.69;70.54
60920;BME280;59039;52.108;19.942;2024-03-17T07:36:22;100881.61;;;5.72;70.64
60920;BME280;59039;52.108;19.942;2024-03-17T07:38:48;100882.40;;;5.73;70.49
60920;BME280;59039;52.108;19.942;2024-03-17T07:41:13;100882.98;;;5.78;70.37
60920;BME280;59039;52.108;19.942;2024-03-17T07:43:38;100880.30;;;5.82;70.36
60920;BME280;59039;52.108;19.942;2024-03-17T07:46:08;100879.34;;;5.86;70.19
60920;BME280;59039;52.108;19.942;2024-03-17T07:48:34;100881.63;;;5.89;70.33
60920;BME280;59039;52.108;19.942;2024-03-17T07:51:02;100879.86;;;5.94;69.74
60920;BME280;59039;52.108;19.942;2024-03-17T07:53:28;100876.94;;;6.01;69.72
60920;BME280;59039;52.108;19.942;2024-03-17T07:56:00;100872.59;;;6.09;70.20
60920;BME280;59039;52.108;19.942;2024-03-17T07:58:26;100877.27;;;6.16;69.95
60920;BME280;59039;52.108;19.942;2024-03-17T08:00:52;100875.64;;;6.21;69.59
60920;BME280;59039;52.108;19.942;2024-03-17T08:03:17;100875.56;;;6.25;69.46
60920;BME280;59039;52.108;19.942;2024-03-17T08:05:43;100872.23;;;6.28;69.74
60920;BME280;59039;52.108;19.942;2024-03-17T08:08:08;100870.20;;;6.32;68.73
60920;BME280;59039;52.108;19.942;2024-03-17T08:10:37;100871.44;;;6.34;68.82
60920;BME280;59039;52.108;19.942;2024-03-17T08:13:03;100872.42;;;6.38;69.48
60920;BME280;59039;52.108;19.942;2024-03-17T08:15:28;100873.90;;;6.37;68.49
60920;BME280;59039;52.108;19.942;2024-03-17T08:17:53;100873.76;;;6.39;69.43
60920;BME280;59039;52.108;19.942;2024-03-17T08:20:18;100870.79;;;6.38;68.85
60920;BME280;59039;52.108;19.942;2024-03-17T08:22:43;100871.95;;;6.41;69.30
60920;BME280;59039;52.108;19.942;2024-03-17T08:25:08;100873.39;;;6.42;68.75
60920;BME280;59039;52.108;19.942;2024-03-17T08:27:34;100877.67;;;6.40;68.27
60920;BME280;59039;52.108;19.942;2024-03-17T08:29:59;100878.38;;;6.40;68.63
60920;BME280;59039;52.108;19.942;2024-03-17T08:32:24;100879.23;;;6.40;68.54
60920;BME280;59039;52.108;19.942;2024-03-17T08:34:49;100884.25;;;6.36;68.31
60920;BME280;59039;52.108;19.942;2024-03-17T08:37:14;100884.25;;;6.36;68.13
60920;BME280;59039;52.108;19.942;2024-03-17T08:39:39;100885.61;;;6.35;67.82
60920;BME280;59039;52.108;19.942;2024-03-17T08:42:05;100887.33;;;6.33;68.26
60920;BME280;59039;52.108;19.942;2024-03-17T08:44:30;100889.06;;;6.32;68.20
60920;BME280;59039;52.108;19.942;2024-03-17T08:46:55;100888.63;;;6.28;67.73
60920;BME280;59039;52.108;19.942;2024-03-17T08:49:20;100888.73;;;6.24;67.50
60920;BME280;59039;52.108;19.942;2024-03-17T08:51:45;100887.31;;;6.22;67.31
60920;BME280;59039;52.108;19.942;2024-03-17T08:54:11;100887.34;;;6.21;67.76
60920;BME280;59039;52.108;19.942;2024-03-17T08:56:36;100882.36;;;6.21;68.08
60920;BME280;59039;52.108;19.942;2024-03-17T08:59:01;100888.58;;;6.17;67.64
60920;BME280;59039;52.108;19.942;2024-03-17T09:01:26;100890.81;;;6.11;67.50
60920;BME280;59039;52.108;19.942;2024-03-17T09:03:51;100900.84;;;6.09;67.95
60920;BME280;59039;52.108;19.942;2024-03-17T09:06:16;100910.16;;;6.05;68.16
60920;BME280;59039;52.108;19.942;2024-03-17T09:08:42;100917.41;;;5.99;69.89
60920;BME280;59039;52.108;19.942;2024-03-17T09:11:12;100924.13;;;5.91;71.08
60920;BME280;59039;52.108;19.942;2024-03-17T09:13:38;100921.58;;;5.78;71.70
60920;BME280;59039;52.108;19.942;2024-03-17T09:16:03;100915.24;;;5.67;72.82
60920;BME280;59039;52.108;19.942;2024-03-17T09:18:30;100912.28;;;5.58;73.74
60920;BME280;59039;52.108;19.942;2024-03-17T09:21:00;100914.10;;;5.53;74.39
60920;BME280;59039;52.108;19.942;2024-03-17T09:23:26;100917.44;;;5.51;74.44
60920;BME280;59039;52.108;19.942;2024-03-17T09:28:20;100915.29;;;5.51;74.26
60920;BME280;59039;52.108;19.942;2024-03-17T09:30:48;100916.13;;;5.52;74.82
60920;BME280;59039;52.108;19.942;2024-03-17T09:33:14;100914.05;;;5.53;74.05
60920;BME280;59039;52.108;19.942;2024-03-17T09:35:39;100915.14;;;5.51;73.08
60920;BME280;59039;52.108;19.942;2024-03-17T09:38:04;100910.83;;;5.46;73.17
60920;BME280;59039;52.108;19.942;2024-03-17T09:40:29;100908.55;;;5.37;72.28
60920;BME280;59039;52.108;19.942;2024-03-17T09:42:55;100916.98;;;5.33;72.36
60920;BME280;59039;52.108;19.942;2024-03-17T09:45:21;100914.82;;;5.28;72.21
60920;BME280;59039;52.108;19.942;2024-03-17T09:47:47;100923.66;;;5.22;72.00
60920;BME280;59039;52.108;19.942;2024-03-17T09:50:13;100924.06;;;5.16;72.49
60920;BME280;59039;52.108;19.942;2024-03-17T09:52:39;100920.30;;;5.14;72.76
60920;BME280;59039;52.108;19.942;2024-03-17T09:55:14;100921.66;;;5.12;73.01
60920;BME280;59039;52.108;19.942;2024-03-17T09:57:40;100920.80;;;5.11;73.16
60920;BME280;59039;52.108;19.942;2024-03-17T10:00:14;100916.45;;;5.12;73.42
60920;BME280;59039;52.108;19.942;2024-03-17T10:02:46;100919.20;;;5.14;73.32
60920;BME280;59039;52.108;19.942;2024-03-17T10:05:22;100918.78;;;5.17;73.45
60920;BME280;59039;52.108;19.942;2024-03-17T10:07:49;100917.73;;;5.22;73.53
60920;BME280;59039;52.108;19.942;2024-03-17T10:10:15;100915.14;;;5.26;72.38
60920;BME280;59039;52.108;19.942;2024-03-17T10:12:40;100917.92;;;5.27;70.07
60920;BME280;59039;52.108;19.942;2024-03-17T10:15:10;100917.23;;;5.29;70.19
60920;BME280;59039;52.108;19.942;2024-03-17T10:17:36;100916.66;;;5.32;69.34
60920;BME280;59039;52.108;19.942;2024-03-17T10:20:18;100915.37;;;5.35;69.54
60920;BME280;59039;52.108;19.942;2024-03-17T10:23:03;100916.83;;;5.40;69.08
60920;BME280;59039;52.108;19.942;2024-03-17T10:25:30;100918.80;;;5.45;67.83
60920;BME280;59039;52.108;19.942;2024-03-17T10:27:56;100917.69;;;5.51;67.51
60920;BME280;59039;52.108;19.942;2024-03-17T10:30:23;100914.23;;;5.56;67.45
60920;BME280;59039;52.108;19.942;2024-03-17T10:32:52;100914.92;;;5.61;67.72
60920;BME280;59039;52.108;19.942;2024-03-17T10:37:58;100917.21;;;5.72;66.98
60920;BME280;59039;52.108;19.942;2024-03-17T10:40:25;100914.60;;;5.78;67.61
60920;BME280;59039;52.108;19.942;2024-03-17T10:42:51;100913.79;;;5.84;66.38
60920;BME280;59039;52.108;19.942;2024-03-17T10:45:16;100918.08;;;5.90;66.17
60920;BME280;59039;52.108;19.942;2024-03-17T10:47:50;100916.75;;;5.96;65.51
60920;BME280;59039;52.108;19.942;2024-03-17T10:50:20;100919.60;;;6.01;64.36
60920;BME280;59039;52.108;19.942;2024-03-17T10:52:48;100919.00;;;6.04;62.86
60920;BME280;59039;52.108;19.942;2024-03-17T10:55:20;100919.48;;;6.08;63.02
60920;BME280;59039;52.108;19.942;2024-03-17T10:57:46;100923.67;;;6.10;63.51
60920;BME280;59039;52.108;19.942;2024-03-17T11:00:12;100927.12;;;6.12;63.77
60920;BME280;59039;52.108;19.942;2024-03-17T11:02:40;100928.23;;;6.14;63.96
60920;BME280;59039;52.108;19.942;2024-03-17T11:05:14;100933.16;;;6.15;62.98
60920;BME280;59039;52.108;19.942;2024-03-17T11:07:41;100932.20;;;6.13;62.35
60920;BME280;59039;52.108;19.942;2024-03-17T11:10:09;100935.73;;;6.12;62.58
60920;BME280;59039;52.108;19.942;2024-03-17T11:12:42;100933.52;;;6.13;63.13
60920;BME280;59039;52.108;19.942;2024-03-17T11:17:55;100935.22;;;6.16;62.52
60920;BME280;59039;52.108;19.942;2024-03-17T11:20:23;100931.40;;;6.22;62.85
60920;BME280;59039;52.108;19.942;2024-03-17T11:22:50;100932.88;;;6.26;62.67
60920;BME280;59039;52.108;19.942;2024-03-17T11:27:53;100932.50;;;6.34;60.74
60920;BME280;59039;52.108;19.942;2024-03-17T11:33:46;100938.56;;;6.35;60.85
60920;BME280;59039;52.108;19.942;2024-03-17T11:39:12;100940.45;;;6.33;60.57
60920;BME280;59039;52.108;19.942;2024-03-17T11:41:39;100934.41;;;6.30;59.68
60920;BME280;59039;52.108;19.942;2024-03-17T11:46:52;100934.38;;;6.23;60.30
60920;BME280;59039;52.108;19.942;2024-03-17T11:51:54;100936.54;;;6.15;60.23
60920;BME280;59039;52.108;19.942;2024-03-17T11:54:25;100939.15;;;6.12;60.83
60920;BME280;59039;52.108;19.942;2024-03-17T11:56:51;100937.73;;;6.06;60.30
60920;BME280;59039;52.108;19.942;2024-03-17T11:59:18;100936.98;;;6.02;60.37
60920;BME280;59039;52.108;19.942;2024-03-17T12:01:45;100939.98;;;6.01;60.72
60920;BME280;59039;52.108;19.942;2024-03-17T12:04:11;100935.88;;;5.97;61.32
60920;BME280;59039;52.108;19.942;2024-03-17T12:06:37;100936.86;;;5.94;61.66
60920;BME280;59039;52.108;19.942;2024-03-17T12:09:20;100935.95;;;5.94;62.28
60920;BME280;59039;52.108;19.942;2024-03-17T12:11:45;100936.54;;;5.96;62.06
60920;BME280;59039;52.108;19.942;2024-03-17T12:14:18;100934.61;;;5.98;61.99
60920;BME280;59039;52.108;19.942;2024-03-17T12:19:16;100935.96;;;6.03;61.55
60920;BME280;59039;52.108;19.942;2024-03-17T12:21:44;100934.73;;;6.06;61.39
60920;BME280;59039;52.108;19.942;2024-03-17T12:24:18;100935.39;;;6.09;61.29
60920;BME280;59039;52.108;19.942;2024-03-17T12:26:45;100934.74;;;6.11;60.75
60920;BME280;59039;52.108;19.942;2024-03-17T12:29:30;100936.83;;;6.09;61.02
60920;BME280;59039;52.108;19.942;2024-03-17T12:31:57;100940.79;;;6.07;61.41
60920;BME280;59039;52.108;19.942;2024-03-17T12:34:25;100941.48;;;6.04;61.77
60920;BME280;59039;52.108;19.942;2024-03-17T12:36:51;100943.08;;;6.00;60.89
60920;BME280;59039;52.108;19.942;2024-03-17T12:39:24;100946.86;;;5.95;61.41
60920;BME280;59039;52.108;19.942;2024-03-17T12:42:06;100947.86;;;5.88;61.79
60920;BME280;59039;52.108;19.942;2024-03-17T12:44:33;100943.86;;;5.84;61.66
60920;BME280;59039;52.108;19.942;2024-03-17T12:47:01;100950.31;;;5.82;62.04
60920;BME280;59039;52.108;19.942;2024-03-17T12:49:28;100948.13;;;5.80;62.48
60920;BME280;59039;52.108;19.942;2024-03-17T12:51:53;100945.76;;;5.75;63.24
60920;BME280;59039;52.108;19.942;2024-03-17T12:54:21;100940.66;;;5.71;63.23
60920;BME280;59039;52.108;19.942;2024-03-17T12:56:46;100940.23;;;5.67;63.29
60920;BME280;59039;52.108;19.942;2024-03-17T12:59:11;100932.78;;;5.60;62.92
60920;BME280;59039;52.108;19.942;2024-03-17T13:01:36;100929.95;;;5.57;63.37
60920;BME280;59039;52.108;19.942;2024-03-17T13:04:05;100931.60;;;5.57;63.27
60920;BME280;59039;52.108;19.942;2024-03-17T13:06:30;100932.83;;;5.57;63.37
60920;BME280;59039;52.108;19.942;2024-03-17T13:08:56;100932.66;;;5.60;63.33